sensor_id;sensor_type;location;lat;lon;timestamp;pressure;altitude;pressure_sealevel;temperature;humidity
65173;BME280;51758;52.218;5.172;2022-08-19T00:02:15;101285.66;;;18.23;100.00
65173;BME280;51758;52.218;5.172;2022-08-19T00:04:43;101288.53;;;18.22;100.00
65173;BME280;51758;52.218;5.172;2022-08-19T00:07:14;101281.63;;;18.21;100.00
65173;BME280;51758;52.218;5.172;2022-08-19T00:09:41;101276.53;;;18.19;100.00
65173;BME280;51758;52.218;5.172;2022-08-19T00:12:08;101283.66;;;18.19;100.00
65173;BME280;51758;52.218;5.172;2022-08-19T00:14:36;101290.34;;;18.21;100.00
65173;BME280;51758;52.218;5.172;2022-08-19T00:17:04;101290.19;;;18.16;100.00
65173;BME280;51758;52.218;5.172;2022-08-19T00:19:33;101290.59;;;18.13;100.00
65173;BME280;51758;52.218;5.172;2022-08-19T00:22:02;101298.75;;;18.12;100.00
65173;BME280;51758;52.218;5.172;2022-08-19T00:24:29;101303.47;;;18.10;100.00
65173;BME280;51758;52.218;5.172;2022-08-19T00:26:57;101299.41;;;18.07;100.00
65173;BME280;51758;52.218;5.172;2022-08-19T00:29:45;101289.28;;;18.04;100.00
65173;BME280;51758;52.218;5.172;2022-08-19T00:32:18;101285.00;;;18.03;100.00
65173;BME280;51758;52.218;5.172;2022-08-19T00:34:45;101291.31;;;18.02;100.00
65173;BME280;51758;52.218;5.172;2022-08-19T00:37:14;101292.34;;;18.01;100.00
65173;BME280;51758;52.218;5.172;2022-08-19T00:39:42;101281.97;;;18.00;100.00
65173;BME280;51758;52.218;5.172;2022-08-19T00:42:09;101274.88;;;18.00;100.00
65173;BME280;51758;52.218;5.172;2022-08-19T00:44:37;101276.34;;;17.96;100.00
65173;BME280;51758;52.218;5.172;2022-08-19T00:47:04;101289.75;;;17.95;100.00
65173;BME280;51758;52.218;5.172;2022-08-19T00:49:40;101274.94;;;17.94;100.00
65173;BME280;51758;52.218;5.172;2022-08-19T00:52:09;101275.34;;;17.90;100.00
65173;BME280;51758;52.218;5.172;2022-08-19T00:54:40;101274.53;;;17.90;100.00
65173;BME280;51758;52.218;5.172;2022-08-19T00:57:09;101282.69;;;17.88;100.00
65173;BME280;51758;52.218;5.172;2022-08-19T00:59:39;101275.22;;;17.85;100.00
65173;BME280;51758;52.218;5.172;2022-08-19T01:02:27;101281.56;;;17.78;100.00
65173;BME280;51758;52.218;5.172;2022-08-19T01:04:54;101284.78;;;17.80;100.00
65173;BME280;51758;52.218;5.172;2022-08-19T01:07:22;101274.81;;;17.82;100.00
65173;BME280;51758;52.218;5.172;2022-08-19T01:09:51;101281.94;;;17.81;100.00
65173;BME280;51758;52.218;5.172;2022-08-19T01:12:19;101284.56;;;17.81;100.00
65173;BME280;51758;52.218;5.172;2022-08-19T01:14:47;101282.97;;;17.80;100.00
65173;BME280;51758;52.218;5.172;2022-08-19T01:17:16;101278.31;;;17.76;100.00
65173;BME280;51758;52.218;5.172;2022-08-19T01:19:44;101279.31;;;17.75;100.00
65173;BME280;51758;52.218;5.172;2022-08-19T01:22:14;101280.34;;;17.74;100.00
65173;BME280;51758;52.218;5.172;2022-08-19T01:24:53;101247.97;;;17.53;100.00
65173;BME280;51758;52.218;5.172;2022-08-19T01:27:21;101280.00;;;17.70;100.00
65173;BME280;51758;52.218;5.172;2022-08-19T01:29:49;101286.50;;;17.68;100.00
65173;BME280;51758;52.218;5.172;2022-08-19T01:32:17;101278.78;;;17.66;100.00
65173;BME280;51758;52.218;5.172;2022-08-19T01:34:59;101286.13;;;17.64;100.00
65173;BME280;51758;52.218;5.172;2022-08-19T01:37:28;101288.13;;;17.62;100.00
65173;BME280;51758;52.218;5.172;2022-08-19T01:39:57;101285.31;;;17.64;100.00
65173;BME280;51758;52.218;5.172;2022-08-19T01:42:25;101289.56;;;17.65;100.00
65173;BME280;51758;52.218;5.172;2022-08-19T01:44:55;101289.56;;;17.65;100.00
65173;BME280;51758;52.218;5.172;2022-08-19T01:47:23;101296.03;;;17.62;100.00
65173;BME280;51758;52.218;5.172;2022-08-19T01:49:50;101287.13;;;17.63;100.00
65173;BME280;51758;52.218;5.172;2022-08-19T01:52:18;101296.84;;;17.63;100.00
65173;BME280;51758;52.218;5.172;2022-08-19T01:54:45;101299.50;;;17.63;100.00
65173;BME280;51758;52.218;5.172;2022-08-19T01:57:14;101296.03;;;17.62;100.00
65173;BME280;51758;52.218;5.172;2022-08-19T01:59:42;101293.84;;;17.59;100.00
65173;BME280;51758;52.218;5.172;2022-08-19T02:02:11;101294.88;;;17.58;100.00
65173;BME280;51758;52.218;5.172;2022-08-19T02:04:39;101296.69;;;17.58;100.00
65173;BME280;51758;52.218;5.172;2022-08-19T02:07:07;101297.13;;;17.54;100.00
65173;BME280;51758;52.218;5.172;2022-08-19T02:09:35;101299.16;;;17.52;100.00
65173;BME280;51758;52.218;5.172;2022-08-19T02:12:02;101297.53;;;17.51;100.00
65173;BME280;51758;52.218;5.172;2022-08-19T02:14:31;101299.56;;;17.49;100.00
65173;BME280;51758;52.218;5.172;2022-08-19T02:17:00;101301.63;;;17.47;100.00
65173;BME280;51758;52.218;5.172;2022-08-19T02:19:28;101298.41;;;17.45;100.00
65173;BME280;51758;52.218;5.172;2022-08-19T02:21:58;101301.03;;;17.45;100.00
65173;BME280;51758;52.218;5.172;2022-08-19T02:24:26;101308.16;;;17.45;100.00
65173;BME280;51758;52.218;5.172;2022-08-19T02:26:53;101298.81;;;17.42;100.00
65173;BME280;51758;52.218;5.172;2022-08-19T02:29:21;101302.25;;;17.43;100.00
65173;BME280;51758;52.218;5.172;2022-08-19T02:31:50;101295.56;;;17.40;100.00
65173;BME280;51758;52.218;5.172;2022-08-19T02:34:17;101294.97;;;17.38;100.00
65173;BME280;51758;52.218;5.172;2022-08-19T02:36:45;101294.59;;;17.35;100.00
65173;BME280;51758;52.218;5.172;2022-08-19T02:39:17;101303.69;;;17.39;100.00
65173;BME280;51758;52.218;5.172;2022-08-19T02:41:43;101300.03;;;17.40;100.00
65173;BME280;51758;52.218;5.172;2022-08-19T02:44:11;101293.94;;;17.39;100.00
65173;BME280;51758;52.218;5.172;2022-08-19T02:46:57;101287.88;;;17.39;100.00
65173;BME280;51758;52.218;5.172;2022-08-19T02:49:24;101293.13;;;17.39;100.00
65173;BME280;51758;52.218;5.172;2022-08-19T02:51:52;101291.53;;;17.38;100.00
65173;BME280;51758;52.218;5.172;2022-08-19T02:54:20;101292.75;;;17.35;100.00
65173;BME280;51758;52.218;5.172;2022-08-19T02:56:47;101283.25;;;17.34;100.00
65173;BME280;51758;52.218;5.172;2022-08-19T02:59:15;101284.25;;;17.33;100.00
65173;BME280;51758;52.218;5.172;2022-08-19T03:01:48;101271.06;;;17.33;100.00
65173;BME280;51758;52.218;5.172;2022-08-19T03:04:17;101277.16;;;17.34;100.00
65173;BME280;51758;52.218;5.172;2022-08-19T03:06:45;101277.16;;;17.34;100.00
65173;BME280;51758;52.218;5.172;2022-08-19T03:09:13;101281.63;;;17.33;100.00
65173;BME280;51758;52.218;5.172;2022-08-19T03:11:41;101278.16;;;17.33;100.00
65173;BME280;51758;52.218;5.172;2022-08-19T03:14:09;101278.16;;;17.33;100.00
65173;BME280;51758;52.218;5.172;2022-08-19T03:16:40;101280.41;;;17.29;100.00
65173;BME280;51758;52.218;5.172;2022-08-19T03:19:08;101288.13;;;17.24;100.00
65173;BME280;51758;52.218;5.172;2022-08-19T03:21:37;101286.75;;;17.22;100.00
65173;BME280;51758;52.218;5.172;2022-08-19T03:24:05;101283.50;;;17.19;100.00
65173;BME280;51758;52.218;5.172;2022-08-19T03:26:33;101277.84;;;17.16;100.00
65173;BME280;51758;52.218;5.172;2022-08-19T03:29:01;101269.13;;;17.15;100.00
65173;BME280;51758;52.218;5.172;2022-08-19T03:31:31;101270.34;;;17.13;100.00
65173;BME280;51758;52.218;5.172;2022-08-19T03:34:11;101271.00;;;17.08;100.00
65173;BME280;51758;52.218;5.172;2022-08-19T03:36:40;101264.72;;;17.03;100.00
65173;BME280;51758;52.218;5.172;2022-08-19T03:39:09;101265.31;;;16.98;100.00
65173;BME280;51758;52.218;5.172;2022-08-19T03:41:37;101265.56;;;16.97;100.00
65173;BME280;51758;52.218;5.172;2022-08-19T03:44:11;101268.81;;;16.92;100.00
65173;BME280;51758;52.218;5.172;2022-08-19T03:46:44;101267.44;;;16.83;100.00
65173;BME280;51758;52.218;5.172;2022-08-19T03:49:12;101270.66;;;16.85;100.00
65173;BME280;51758;52.218;5.172;2022-08-19T03:51:41;101267.88;;;16.67;100.00
65173;BME280;51758;52.218;5.172;2022-08-19T03:54:10;101281.69;;;16.69;100.00
65173;BME280;51758;52.218;5.172;2022-08-19T03:56:39;101274.59;;;16.69;100.00
65173;BME280;51758;52.218;5.172;2022-08-19T03:59:08;101277.22;;;16.69;100.00
65173;BME280;51758;52.218;5.172;2022-08-19T04:01:35;101271.34;;;16.67;100.00
65173;BME280;51758;52.218;5.172;2022-08-19T04:04:03;101269.91;;;16.71;100.00
65173;BME280;51758;52.218;5.172;2022-08-19T04:06:33;101281.25;;;16.72;100.00
65173;BME280;51758;52.218;5.172;2022-08-19T04:09:07;101280.84;;;16.75;100.00
65173;BME280;51758;52.218;5.172;2022-08-19T04:11:35;101281.84;;;16.74;100.00
65173;BME280;51758;52.218;5.172;2022-08-19T04:14:09;101279.41;;;16.72;100.00
65173;BME280;51758;52.218;5.172;2022-08-19T04:16:37;101279.66;;;16.71;100.00
65173;BME280;51758;52.218;5.172;2022-08-19T04:19:05;101280.22;;;16.73;100.00
65173;BME280;51758;52.218;5.172;2022-08-19T04:21:32;101274.16;;;16.72;100.00
65173;BME280;51758;52.218;5.172;2022-08-19T04:24:00;101262.38;;;16.75;100.00
65173;BME280;51758;52.218;5.172;2022-08-19T04:26:31;101268.88;;;16.72;100.00
65173;BME280;51758;52.218;5.172;2022-08-19T04:29:00;101262.00;;;16.71;100.00
65173;BME280;51758;52.218;5.172;2022-08-19T04:31:29;101270.13;;;16.70;100.00
65173;BME280;51758;52.218;5.172;2022-08-19T04:33:57;101253.50;;;16.69;100.00
65173;BME280;51758;52.218;5.172;2022-08-19T04:36:27;101264.25;;;16.68;100.00
65173;BME280;51758;52.218;5.172;2022-08-19T04:38:56;101258.38;;;16.66;100.00
65173;BME280;51758;52.218;5.172;2022-08-19T04:41:23;101260.19;;;16.65;100.00
65173;BME280;51758;52.218;5.172;2022-08-19T04:44:10;101260.78;;;16.67;100.00
65173;BME280;51758;52.218;5.172;2022-08-19T04:46:38;101261.81;;;16.66;100.00
65173;BME280;51758;52.218;5.172;2022-08-19T04:49:17;101269.72;;;16.66;100.00
65173;BME280;51758;52.218;5.172;2022-08-19T04:51:46;101272.34;;;16.66;100.00
65173;BME280;51758;52.218;5.172;2022-08-19T04:54:14;101266.28;;;16.66;100.00
65173;BME280;51758;52.218;5.172;2022-08-19T04:57:02;101275.59;;;16.68;100.00
65173;BME280;51758;52.218;5.172;2022-08-19T04:59:33;101285.94;;;16.70;100.00
65173;BME280;51758;52.218;5.172;2022-08-19T05:02:01;101282.28;;;16.71;100.00
65173;BME280;51758;52.218;5.172;2022-08-19T05:04:28;101292.59;;;16.72;100.00
65173;BME280;51758;52.218;5.172;2022-08-19T05:06:58;101288.75;;;16.75;100.00
65173;BME280;51758;52.218;5.172;2022-08-19T05:09:27;101296.84;;;16.80;100.00
65173;BME280;51758;52.218;5.172;2022-08-19T05:12:15;101306.75;;;16.84;100.00
65173;BME280;51758;52.218;5.172;2022-08-19T05:14:44;101312.63;;;16.93;100.00
65173;BME280;51758;52.218;5.172;2022-08-19T05:17:15;101310.41;;;16.97;100.00
65173;BME280;51758;52.218;5.172;2022-08-19T05:19:53;101306.31;;;17.01;100.00
65173;BME280;51758;52.218;5.172;2022-08-19T05:22:38;101303.50;;;16.96;100.00
65173;BME280;51758;52.218;5.172;2022-08-19T05:25:07;101294.13;;;17.06;100.00
65173;BME280;51758;52.218;5.172;2022-08-19T05:27:39;101294.28;;;17.11;100.00
65173;BME280;51758;52.218;5.172;2022-08-19T05:30:08;101288.78;;;17.19;100.00
65173;BME280;51758;52.218;5.172;2022-08-19T05:32:36;101285.28;;;17.26;100.00
65173;BME280;51758;52.218;5.172;2022-08-19T05:35:04;101289.94;;;17.30;100.00
65173;BME280;51758;52.218;5.172;2022-08-19T05:37:31;101288.75;;;17.26;100.00
65173;BME280;51758;52.218;5.172;2022-08-19T05:39:59;101294.81;;;17.33;100.00
65173;BME280;51758;52.218;5.172;2022-08-19T05:42:27;101297.19;;;17.41;100.00
65173;BME280;51758;52.218;5.172;2022-08-19T05:44:56;101298.41;;;17.45;100.00
65173;BME280;51758;52.218;5.172;2022-08-19T05:47:25;101297.94;;;17.48;100.00
65173;BME280;51758;52.218;5.172;2022-08-19T05:49:53;101289.00;;;17.49;100.00
65173;BME280;51758;52.218;5.172;2022-08-19T05:52:21;101286.56;;;17.54;100.00
65173;BME280;51758;52.218;5.172;2022-08-19T05:54:51;101294.63;;;17.66;100.00
65173;BME280;51758;52.218;5.172;2022-08-19T05:57:21;101283.88;;;17.68;100.00
65173;BME280;51758;52.218;5.172;2022-08-19T05:59:49;101285.59;;;17.80;100.00
65173;BME280;51758;52.218;5.172;2022-08-19T06:02:23;101289.16;;;17.93;100.00
65173;BME280;51758;52.218;5.172;2022-08-19T06:04:52;101286.25;;;18.01;100.00
65173;BME280;51758;52.218;5.172;2022-08-19T06:07:19;101286.91;;;17.96;100.00
65173;BME280;51758;52.218;5.172;2022-08-19T06:09:47;101291.06;;;18.10;100.00
65173;BME280;51758;52.218;5.172;2022-08-19T06:12:26;101289.25;;;18.29;100.00
65173;BME280;51758;52.218;5.172;2022-08-19T06:14:56;101293.81;;;18.22;100.00
65173;BME280;51758;52.218;5.172;2022-08-19T06:17:26;101287.13;;;18.19;100.00
65173;BME280;51758;52.218;5.172;2022-08-19T06:19:58;101298.16;;;18.35;100.00
65173;BME280;51758;52.218;5.172;2022-08-19T06:22:26;101290.06;;;18.30;100.00
65173;BME280;51758;52.218;5.172;2022-08-19T06:24:54;101294.50;;;18.36;100.00
65173;BME280;51758;52.218;5.172;2022-08-19T06:27:21;101292.88;;;18.53;100.00
65173;BME280;51758;52.218;5.172;2022-08-19T06:29:48;101293.97;;;18.45;100.00
65173;BME280;51758;52.218;5.172;2022-08-19T06:32:17;101281.41;;;18.41;100.00
65173;BME280;51758;52.218;5.172;2022-08-19T06:34:45;101285.25;;;18.45;100.00
65173;BME280;51758;52.218;5.172;2022-08-19T06:37:14;101286.88;;;18.46;100.00
65173;BME280;51758;52.218;5.172;2022-08-19T06:39:42;101297.53;;;18.57;100.00
65173;BME280;51758;52.218;5.172;2022-08-19T06:42:11;101295.78;;;18.70;100.00
65173;BME280;51758;52.218;5.172;2022-08-19T06:44:43;101292.63;;;18.61;100.00
65173;BME280;51758;52.218;5.172;2022-08-19T06:47:15;101293.78;;;18.47;100.00
65173;BME280;51758;52.218;5.172;2022-08-19T06:49:53;101296.09;;;18.62;100.00
65173;BME280;51758;52.218;5.172;2022-08-19T06:52:28;101297.94;;;18.54;100.00
65173;BME280;51758;52.218;5.172;2022-08-19T06:54:55;101292.88;;;18.53;100.00
65173;BME280;51758;52.218;5.172;2022-08-19T06:57:25;101298.94;;;18.78;100.00
65173;BME280;51758;52.218;5.172;2022-08-19T06:59:53;101303.41;;;18.78;100.00
65173;BME280;51758;52.218;5.172;2022-08-19T07:02:22;101305.03;;;18.79;100.00
65173;BME280;51758;52.218;5.172;2022-08-19T07:04:52;101312.69;;;18.69;100.00
65173;BME280;51758;52.218;5.172;2022-08-19T07:07:20;101310.75;;;18.57;100.00
65173;BME280;51758;52.218;5.172;2022-08-19T07:09:49;101307.22;;;18.64;100.00
65173;BME280;51758;52.218;5.172;2022-08-19T07:12:26;101311.44;;;18.71;100.00
65173;BME280;51758;52.218;5.172;2022-08-19T07:14:56;101315.34;;;18.69;100.00
65173;BME280;51758;52.218;5.172;2022-08-19T07:17:24;101307.69;;;18.79;100.00
65173;BME280;51758;52.218;5.172;2022-08-19T07:19:52;101322.97;;;18.77;100.00
65173;BME280;51758;52.218;5.172;2022-08-19T07:22:21;101313.41;;;19.12;100.00
65173;BME280;51758;52.218;5.172;2022-08-19T07:24:51;101314.50;;;19.05;100.00
65173;BME280;51758;52.218;5.172;2022-08-19T07:27:18;101328.69;;;18.92;100.00
65173;BME280;51758;52.218;5.172;2022-08-19T07:29:51;101326.94;;;18.86;100.00
65173;BME280;51758;52.218;5.172;2022-08-19T07:32:22;101325.94;;;18.87;100.00
65173;BME280;51758;52.218;5.172;2022-08-19T07:34:52;101332.44;;;19.03;100.00
65173;BME280;51758;52.218;5.172;2022-08-19T07:37:19;101332.88;;;19.18;100.00
65173;BME280;51758;52.218;5.172;2022-08-19T07:39:47;101330.00;;;19.01;100.00
65173;BME280;51758;52.218;5.172;2022-08-19T07:42:16;101329.84;;;19.32;100.00
65173;BME280;51758;52.218;5.172;2022-08-19T07:44:44;101326.88;;;19.11;100.00
65173;BME280;51758;52.218;5.172;2022-08-19T07:47:16;101318.28;;;19.27;100.00
65173;BME280;51758;52.218;5.172;2022-08-19T07:50:05;101321.72;;;19.46;100.00
65173;BME280;51758;52.218;5.172;2022-08-19T07:52:33;101323.91;;;19.79;100.00
65173;BME280;51758;52.218;5.172;2022-08-19T07:55:00;101322.03;;;19.67;100.00
65173;BME280;51758;52.218;5.172;2022-08-19T07:57:31;101326.66;;;19.60;100.00
65173;BME280;51758;52.218;5.172;2022-08-19T07:59:58;101329.81;;;19.81;100.00
65173;BME280;51758;52.218;5.172;2022-08-19T08:02:26;101340.84;;;19.78;100.00
65173;BME280;51758;52.218;5.172;2022-08-19T08:04:53;101335.88;;;19.70;100.00
65173;BME280;51758;52.218;5.172;2022-08-19T08:07:38;101342.22;;;19.68;100.00
65173;BME280;51758;52.218;5.172;2022-08-19T08:10:23;101339.63;;;20.03;100.00
65173;BME280;51758;52.218;5.172;2022-08-19T08:12:52;101341.50;;;19.61;100.00
65173;BME280;51758;52.218;5.172;2022-08-19T08:15:35;101345.69;;;19.81;100.00
65173;BME280;51758;52.218;5.172;2022-08-19T08:18:08;101345.91;;;19.79;100.00
65173;BME280;51758;52.218;5.172;2022-08-19T08:20:36;101354.97;;;19.60;100.00
65173;BME280;51758;52.218;5.172;2022-08-19T08:23:03;101356.88;;;19.83;100.00
65173;BME280;51758;52.218;5.172;2022-08-19T08:25:52;101354.25;;;19.94;100.00
65173;BME280;51758;52.218;5.172;2022-08-19T08:28:22;101359.56;;;19.94;100.00
65173;BME280;51758;52.218;5.172;2022-08-19T08:30:51;101357.66;;;20.25;100.00
65173;BME280;51758;52.218;5.172;2022-08-19T08:33:19;101358.91;;;20.22;100.00
65173;BME280;51758;52.218;5.172;2022-08-19T08:35:59;101353.81;;;20.09;100.00
65173;BME280;51758;52.218;5.172;2022-08-19T08:38:29;101354.81;;;20.50;100.00
65173;BME280;51758;52.218;5.172;2022-08-19T08:41:05;101349.47;;;20.26;100.00
65173;BME280;51758;52.218;5.172;2022-08-19T08:43:37;101352.63;;;20.58;100.00
65173;BME280;51758;52.218;5.172;2022-08-19T08:46:06;101355.97;;;20.77;100.00
65173;BME280;51758;52.218;5.172;2022-08-19T08:48:38;101350.38;;;21.02;100.00
65173;BME280;51758;52.218;5.172;2022-08-19T08:51:09;101358.84;;;21.16;100.00
65173;BME280;51758;52.218;5.172;2022-08-19T08:53:38;101361.50;;;20.76;100.00
65173;BME280;51758;52.218;5.172;2022-08-19T08:56:08;101355.09;;;21.00;100.00
65173;BME280;51758;52.218;5.172;2022-08-19T08:58:45;101358.94;;;20.81;100.00
65173;BME280;51758;52.218;5.172;2022-08-19T09:01:20;101362.84;;;21.01;100.00
65173;BME280;51758;52.218;5.172;2022-08-19T09:03:48;101363.38;;;21.27;100.00
65173;BME280;51758;52.218;5.172;2022-08-19T09:06:18;101359.38;;;21.41;100.00
65173;BME280;51758;52.218;5.172;2022-08-19T09:08:52;101356.13;;;21.51;100.00
65173;BME280;51758;52.218;5.172;2022-08-19T09:11:29;101354.34;;;21.16;100.00
65173;BME280;51758;52.218;5.172;2022-08-19T09:14:13;101359.53;;;21.34;100.00
65173;BME280;51758;52.218;5.172;2022-08-19T09:17:03;101363.06;;;21.52;100.00
65173;BME280;51758;52.218;5.172;2022-08-19T09:19:34;101360.34;;;21.80;100.00
65173;BME280;51758;52.218;5.172;2022-08-19T09:22:02;101360.56;;;22.07;100.00
65173;BME280;51758;52.218;5.172;2022-08-19T09:24:31;101365.91;;;22.40;100.00
65173;BME280;51758;52.218;5.172;2022-08-19T09:26:58;101370.13;;;22.75;100.00
65173;BME280;51758;52.218;5.172;2022-08-19T09:29:32;101363.47;;;23.16;99.45
65173;BME280;51758;52.218;5.172;2022-08-19T09:31:59;101362.13;;;22.75;97.03
65173;BME280;51758;52.218;5.172;2022-08-19T09:34:27;101363.34;;;22.67;98.50
65173;BME280;51758;52.218;5.172;2022-08-19T09:37:03;101361.38;;;22.24;99.63
65173;BME280;51758;52.218;5.172;2022-08-19T09:39:31;101367.56;;;22.30;100.00
65173;BME280;51758;52.218;5.172;2022-08-19T09:42:01;101373.06;;;22.06;100.00
65173;BME280;51758;52.218;5.172;2022-08-19T09:44:29;101375.25;;;22.09;100.00
65173;BME280;51758;52.218;5.172;2022-08-19T09:46:58;101368.81;;;22.39;100.00
65173;BME280;51758;52.218;5.172;2022-08-19T09:49:26;101371.47;;;22.39;100.00
65173;BME280;51758;52.218;5.172;2022-08-19T09:51:53;101372.13;;;22.12;100.00
65173;BME280;51758;52.218;5.172;2022-08-19T09:54:22;101376.25;;;22.59;100.00
65173;BME280;51758;52.218;5.172;2022-08-19T09:56:50;101365.38;;;22.77;99.50
65173;BME280;51758;52.218;5.172;2022-08-19T09:59:18;101374.91;;;23.38;97.73
65173;BME280;51758;52.218;5.172;2022-08-19T10:01:45;101374.84;;;23.33;95.54
65173;BME280;51758;52.218;5.172;2022-08-19T10:04:15;101376.59;;;23.22;96.08
65173;BME280;51758;52.218;5.172;2022-08-19T10:06:47;101373.06;;;23.39;96.25
65173;BME280;51758;52.218;5.172;2022-08-19T10:09:19;101369.25;;;23.83;94.20
65173;BME280;51758;52.218;5.172;2022-08-19T10:11:59;101367.31;;;23.74;91.34
65173;BME280;51758;52.218;5.172;2022-08-19T10:14:28;101356.53;;;23.90;91.91
65173;BME280;51758;52.218;5.172;2022-08-19T10:16:56;101317.38;;;23.64;92.70
65173;BME280;51758;52.218;5.172;2022-08-19T10:19:26;101360.63;;;23.71;92.38
65173;BME280;51758;52.218;5.172;2022-08-19T10:21:55;101360.28;;;23.94;92.35
65173;BME280;51758;52.218;5.172;2022-08-19T10:24:25;101355.34;;;24.45;90.88
65173;BME280;51758;52.218;5.172;2022-08-19T10:26:54;101349.28;;;24.60;89.40
65173;BME280;51758;52.218;5.172;2022-08-19T10:29:24;101345.69;;;24.86;88.55
65173;BME280;51758;52.218;5.172;2022-08-19T10:31:58;101343.47;;;25.35;86.24
65173;BME280;51758;52.218;5.172;2022-08-19T10:34:30;101339.66;;;25.06;83.91
65173;BME280;51758;52.218;5.172;2022-08-19T10:36:57;101358.88;;;25.08;85.61
65173;BME280;51758;52.218;5.172;2022-08-19T10:39:27;101349.63;;;24.74;86.88
65173;BME280;51758;52.218;5.172;2022-08-19T10:41:56;101348.50;;;24.59;88.68
65173;BME280;51758;52.218;5.172;2022-08-19T10:44:24;101350.66;;;24.62;88.11
65173;BME280;51758;52.218;5.172;2022-08-19T10:46:58;101341.59;;;25.36;86.34
65173;BME280;51758;52.218;5.172;2022-08-19T10:49:26;101349.03;;;25.14;83.85
65173;BME280;51758;52.218;5.172;2022-08-19T10:51:55;101347.75;;;24.69;86.78
65173;BME280;51758;52.218;5.172;2022-08-19T10:54:47;101350.31;;;24.49;87.59
65173;BME280;51758;52.218;5.172;2022-08-19T10:57:34;101348.28;;;24.66;87.79
65173;BME280;51758;52.218;5.172;2022-08-19T11:00:21;101348.88;;;24.78;87.08
65173;BME280;51758;52.218;5.172;2022-08-19T11:02:49;101342.69;;;24.68;87.60
65173;BME280;51758;52.218;5.172;2022-08-19T11:05:17;101346.16;;;25.30;86.15
65173;BME280;51758;52.218;5.172;2022-08-19T11:07:46;101345.06;;;25.26;85.66
65173;BME280;51758;52.218;5.172;2022-08-19T11:10:16;101347.25;;;25.45;83.01
65173;BME280;51758;52.218;5.172;2022-08-19T11:13:12;101345.19;;;25.77;80.12
65173;BME280;51758;52.218;5.172;2022-08-19T11:15:40;101350.28;;;25.94;80.83
65173;BME280;51758;52.218;5.172;2022-08-19T11:18:07;101345.44;;;26.01;78.16
65173;BME280;51758;52.218;5.172;2022-08-19T11:20:38;101348.31;;;25.44;79.03
65173;BME280;51758;52.218;5.172;2022-08-19T11:23:07;101345.38;;;25.50;80.19
65173;BME280;51758;52.218;5.172;2022-08-19T11:25:37;101340.88;;;25.61;80.70
65173;BME280;51758;52.218;5.172;2022-08-19T11:28:05;101339.00;;;25.72;81.63
65173;BME280;51758;52.218;5.172;2022-08-19T11:30:32;101339.78;;;25.57;79.67
65173;BME280;51758;52.218;5.172;2022-08-19T11:33:00;101339.75;;;25.42;80.07
65173;BME280;51758;52.218;5.172;2022-08-19T11:35:28;101344.22;;;25.06;81.66
65173;BME280;51758;52.218;5.172;2022-08-19T11:37:56;101339.22;;;24.72;83.08
65173;BME280;51758;52.218;5.172;2022-08-19T11:40:28;101345.81;;;24.54;85.08
65173;BME280;51758;52.218;5.172;2022-08-19T11:42:56;101340.94;;;24.46;85.56
65173;BME280;51758;52.218;5.172;2022-08-19T11:45:24;101341.13;;;24.30;87.51
65173;BME280;51758;52.218;5.172;2022-08-19T11:47:51;101352.56;;;24.25;87.34
65173;BME280;51758;52.218;5.172;2022-08-19T11:50:19;101355.97;;;23.88;92.16
65173;BME280;51758;52.218;5.172;2022-08-19T11:52:47;101360.19;;;23.52;96.39
65173;BME280;51758;52.218;5.172;2022-08-19T11:55:15;101376.34;;;23.73;97.20
65173;BME280;51758;52.218;5.172;2022-08-19T11:57:44;101376.97;;;23.53;98.80
65173;BME280;51758;52.218;5.172;2022-08-19T12:00:13;101376.47;;;23.12;100.00
65173;BME280;51758;52.218;5.172;2022-08-19T12:02:40;101340.03;;;22.74;100.00
65173;BME280;51758;52.218;5.172;2022-08-19T12:05:08;101375.13;;;23.53;100.00
65173;BME280;51758;52.218;5.172;2022-08-19T12:07:38;101372.16;;;23.28;99.29
65173;BME280;51758;52.218;5.172;2022-08-19T12:10:07;101380.84;;;23.67;99.49
65173;BME280;51758;52.218;5.172;2022-08-19T12:12:36;101373.75;;;23.78;96.85
65173;BME280;51758;52.218;5.172;2022-08-19T12:15:08;101376.47;;;23.34;99.58
65173;BME280;51758;52.218;5.172;2022-08-19T12:17:37;101380.94;;;23.77;98.79
65173;BME280;51758;52.218;5.172;2022-08-19T12:20:05;101370.59;;;23.81;97.95
65173;BME280;51758;52.218;5.172;2022-08-19T12:22:34;101380.69;;;24.11;95.70
65173;BME280;51758;52.218;5.172;2022-08-19T12:25:02;101378.00;;;24.06;95.14
65173;BME280;51758;52.218;5.172;2022-08-19T12:27:30;101384.00;;;24.23;95.95
65173;BME280;51758;52.218;5.172;2022-08-19T12:30:09;101375.97;;;24.18;96.20
65173;BME280;51758;52.218;5.172;2022-08-19T12:32:37;101375.44;;;24.58;94.37
65173;BME280;51758;52.218;5.172;2022-08-19T12:35:05;101367.06;;;24.86;95.28
65173;BME280;51758;52.218;5.172;2022-08-19T12:37:35;101359.97;;;24.60;93.04
65173;BME280;51758;52.218;5.172;2022-08-19T12:40:03;101356.28;;;24.24;91.98
65173;BME280;51758;52.218;5.172;2022-08-19T12:42:31;101353.81;;;25.02;90.55
65173;BME280;51758;52.218;5.172;2022-08-19T12:44:58;101345.78;;;25.02;87.55
65173;BME280;51758;52.218;5.172;2022-08-19T12:47:27;101343.81;;;24.82;89.12
65173;BME280;51758;52.218;5.172;2022-08-19T12:49:58;101350.94;;;24.71;87.92
65173;BME280;51758;52.218;5.172;2022-08-19T12:52:29;101356.34;;;24.34;87.82
65173;BME280;51758;52.218;5.172;2022-08-19T12:54:56;101355.38;;;23.81;91.12
65173;BME280;51758;52.218;5.172;2022-08-19T12:57:25;101360.13;;;24.06;92.52
65173;BME280;51758;52.218;5.172;2022-08-19T12:59:59;101359.75;;;24.24;93.65